Time;durP1;ratioP1;P1;durP2;ratioP2;P2;SDS_P1;SDS_P2;PMS_P1;PMS_P2;Temp;Humidity;BMP_temperature;BMP_pressure;BME280_temperature;BME280_humidity;BME280_pressure;Samples;Min_cycle;Max_cycle;Signal;HPM_P1;HPM_P2
2022/04/06 00:00:42;;;;;;;1.05;0.93;;;9.50;99.90;;;;;;5072429;28;20201;-90
2022/04/06 00:03:11;;;;;;;1.50;1.38;;;9.40;99.90;;;;;;5072441;28;20221;-91
2022/04/06 00:05:39;;;;;;;0.98;0.98;;;9.40;99.90;;;;;;5072624;28;20205;-90
2022/04/06 00:08:09;;;;;;;0.90;0.90;;;9.40;99.90;;;;;;5073756;28;20209;-90
2022/04/06 00:10:37;;;;;;;1.17;1.08;;;9.40;99.90;;;;;;5074297;28;20247;-90
2022/04/06 00:13:06;;;;;;;0.73;0.73;;;9.40;99.90;;;;;;5074491;28;20229;-89
2022/04/06 00:15:35;;;;;;;0.98;0.98;;;9.50;99.90;;;;;;5078559;28;20215;-90
2022/04/06 00:18:03;;;;;;;0.70;0.70;;;9.50;99.90;;;;;;5073214;28;20292;-90
2022/04/06 00:20:32;;;;;;;0.85;0.73;;;9.60;99.90;;;;;;5071933;28;20205;-89
2022/04/06 00:23:00;;;;;;;1.30;1.20;;;9.70;99.90;;;;;;5072190;28;20221;-89
2022/04/06 00:25:30;;;;;;;0.70;0.70;;;9.70;99.90;;;;;;5072854;28;20209;-90
2022/04/06 00:27:58;;;;;;;0.65;0.65;;;9.70;99.90;;;;;;5072774;28;20254;-90
2022/04/06 00:30:27;;;;;;;1.10;1.05;;;9.80;99.90;;;;;;5073790;28;20211;-88
2022/04/06 00:32:55;;;;;;;0.93;0.93;;;9.90;99.90;;;;;;5072944;28;20308;-90
2022/04/06 00:35:31;;;;;;;0.88;0.88;;;9.90;99.90;;;;;;5080509;28;20227;-87
2022/04/06 00:38:00;;;;;;;0.85;0.85;;;9.90;99.90;;;;;;5072690;28;20228;-88
2022/04/06 00:40:32;;;;;;;0.85;0.85;;;10.00;99.90;;;;;;5072254;28;20213;-89
2022/04/06 00:43:01;;;;;;;1.08;1.08;;;10.10;99.90;;;;;;5072428;28;20235;-89
2022/04/06 00:45:29;;;;;;;1.08;1.05;;;10.10;99.90;;;;;;5072599;28;20296;-89
2022/04/06 00:47:58;;;;;;;0.85;0.85;;;10.10;99.90;;;;;;5072374;28;20227;-89
2022/04/06 00:50:26;;;;;;;0.80;0.80;;;10.10;99.90;;;;;;5072665;28;20266;-89
2022/04/06 00:52:57;;;;;;;0.90;0.90;;;10.10;99.90;;;;;;5074873;28;20288;-88
2022/04/06 00:55:30;;;;;;;0.52;0.52;;;10.10;99.90;;;;;;5077321;28;20255;-88
2022/04/06 00:58:00;;;;;;;0.70;0.70;;;10.10;99.90;;;;;;5087378;28;20209;-88
2022/04/06 01:00:29;;;;;;;1.48;1.15;;;10.10;99.90;;;;;;5088248;28;20209;-88
2022/04/06 01:02:58;;;;;;;1.02;1.02;;;10.00;99.90;;;;;;5083267;28;20221;-91
2022/04/06 01:05:27;;;;;;;1.08;1.00;;;10.10;99.90;;;;;;5077245;28;20265;-88
2022/04/06 01:07:59;;;;;;;1.30;0.95;;;10.20;99.90;;;;;;5083905;28;20201;-88
2022/04/06 01:10:28;;;;;;;0.65;0.65;;;10.20;99.90;;;;;;5080192;28;20208;-88
2022/04/06 01:12:57;;;;;;;0.73;0.73;;;10.20;99.90;;;;;;5078718;28;20308;-88
2022/04/06 01:15:28;;;;;;;1.00;1.00;;;10.20;99.90;;;;;;5072651;28;20223;-89
2022/04/06 01:17:56;;;;;;;4.53;1.45;;;10.20;99.90;;;;;;5072621;28;20232;-89
2022/04/06 01:20:24;;;;;;;0.80;0.80;;;10.20;99.90;;;;;;5072388;28;20237;-88
2022/04/06 01:22:54;;;;;;;0.85;0.85;;;10.30;99.90;;;;;;5072427;28;20227;-89
2022/04/06 01:25:23;;;;;;;0.68;0.68;;;10.30;99.90;;;;;;5075580;28;20213;-89
2022/04/06 01:27:51;;;;;;;0.70;0.70;;;10.30;99.90;;;;;;5075672;28;20208;-89
2022/04/06 01:30:20;;;;;;;1.10;1.10;;;10.40;99.90;;;;;;5075570;28;20209;-89
2022/04/06 01:32:48;;;;;;;1.02;1.02;;;10.50;99.90;;;;;;5074747;28;20265;-88
2022/04/06 01:35:17;;;;;;;1.00;1.00;;;10.50;99.90;;;;;;5076029;28;20224;-88
2022/04/06 01:37:45;;;;;;;1.42;1.35;;;10.50;99.90;;;;;;5075993;28;20232;-88
2022/04/06 01:40:15;;;;;;;2.13;1.00;;;10.60;99.90;;;;;;5075486;28;20265;-89
2022/04/06 01:42:43;;;;;;;0.90;0.90;;;10.60;99.90;;;;;;5075386;28;20226;-88
2022/04/06 01:45:12;;;;;;;1.00;1.00;;;10.60;99.90;;;;;;5075016;28;20209;-88
2022/04/06 01:47:40;;;;;;;1.02;1.02;;;10.60;99.90;;;;;;5074913;28;20227;-88
2022/04/06 01:52:55;;;;;;;1.40;1.30;;;10.70;99.90;;;;;;5074794;28;20235;-88
2022/04/06 01:55:24;;;;;;;1.00;1.00;;;10.70;99.90;;;;;;5074597;28;20244;-87
2022/04/06 01:57:53;;;;;;;0.98;0.98;;;10.70;99.90;;;;;;5074643;28;20227;-88
2022/04/06 02:00:21;;;;;;;1.10;1.10;;;10.80;99.90;;;;;;5074540;28;20229;-89
2022/04/06 02:02:51;;;;;;;1.48;1.13;;;10.80;99.90;;;;;;5074566;28;20251;-88
2022/04/06 02:05:21;;;;;;;9.52;1.05;;;10.80;99.90;;;;;;5074774;28;20308;-87
2022/04/06 02:07:50;;;;;;;1.48;1.17;;;10.80;99.90;;;;;;5074832;28;20215;-89
2022/04/06 02:10:19;;;;;;;0.80;0.80;;;10.90;99.90;;;;;;5074847;28;20689;-89
2022/04/06 02:12:49;;;;;;;0.82;0.82;;;10.90;99.90;;;;;;5074448;28;20217;-87
2022/04/06 02:15:18;;;;;;;0.93;0.93;;;10.90;99.90;;;;;;5074972;28;20263;-89
2022/04/06 02:17:48;;;;;;;1.25;1.15;;;10.90;99.90;;;;;;5074478;28;20200;-88
2022/04/06 02:20:18;;;;;;;1.10;1.10;;;10.90;99.90;;;;;;5074765;28;20258;-88
2022/04/06 02:22:49;;;;;;;1.33;1.23;;;10.90;99.90;;;;;;5074343;28;20225;-88
2022/04/06 02:25:18;;;;;;;1.05;1.05;;;10.90;99.90;;;;;;5074750;28;20288;-88
2022/04/06 02:27:50;;;;;;;0.80;0.80;;;10.90;99.90;;;;;;5075130;28;20212;-89
2022/04/06 02:30:19;;;;;;;0.73;0.73;;;10.90;99.90;;;;;;5075781;28;20205;-89
2022/04/06 02:32:48;;;;;;;0.82;0.82;;;10.90;99.90;;;;;;5074113;28;20249;-88
2022/04/06 02:35:16;;;;;;;0.73;0.73;;;10.90;99.90;;;;;;5073957;28;20288;-88
2022/04/06 02:37:45;;;;;;;1.33;1.10;;;10.90;99.90;;;;;;5074124;28;20291;-88
2022/04/06 02:40:15;;;;;;;0.93;0.93;;;10.90;99.90;;;;;;5074029;28;20278;-88
2022/04/06 02:42:44;;;;;;;0.73;0.63;;;10.90;99.90;;;;;;5074378;28;20285;-87
2022/04/06 02:45:14;;;;;;;0.80;0.80;;;10.80;99.90;;;;;;5073607;28;20292;-88
2022/04/06 02:47:47;;;;;;;1.15;1.02;;;10.90;99.90;;;;;;5073446;28;20299;-88
2022/04/06 02:50:15;;;;;;;0.90;0.90;;;10.80;99.90;;;;;;5073686;28;20205;-88
2022/04/06 02:52:44;;;;;;;0.68;0.68;;;10.80;99.90;;;;;;5073362;28;20292;-87
2022/04/06 02:55:13;;;;;;;1.17;1.10;;;10.80;99.90;;;;;;5073653;28;20223;-88
2022/04/06 02:57:43;;;;;;;0.75;0.70;;;10.80;99.90;;;;;;5073658;28;20209;-88
2022/04/06 03:00:15;;;;;;;0.32;0.32;;;10.80;99.90;;;;;;5073857;28;20201;-87
2022/04/06 03:02:44;;;;;;;0.43;0.43;;;10.80;99.90;;;;;;5073377;28;20229;-87
2022/04/06 03:05:13;;;;;;;0.57;0.57;;;10.80;99.90;;;;;;5073397;28;20205;-88
2022/04/06 03:07:41;;;;;;;0.70;0.70;;;10.80;99.90;;;;;;5073523;28;20231;-88
2022/04/06 03:10:10;;;;;;;0.90;0.90;;;10.90;99.90;;;;;;5073358;28;20282;-88
2022/04/06 03:12:38;;;;;;;0.73;0.73;;;10.90;99.90;;;;;;5072947;28;20245;-87
2022/04/06 03:15:07;;;;;;;0.70;0.70;;;10.90;99.90;;;;;;5073044;28;20288;-87
2022/04/06 03:17:37;;;;;;;0.90;0.88;;;11.00;99.90;;;;;;5073252;28;20229;-87
2022/04/06 03:20:08;;;;;;;0.68;0.68;;;11.00;99.90;;;;;;5073154;28;20211;-86
2022/04/06 03:22:36;;;;;;;0.90;0.90;;;11.00;99.90;;;;;;5073188;28;20319;-87
2022/04/06 03:25:06;;;;;;;1.10;0.98;;;11.00;99.90;;;;;;5072944;28;20281;-87
2022/04/06 03:27:35;;;;;;;0.70;0.70;;;11.10;99.90;;;;;;5073050;28;20221;-87
2022/04/06 03:30:05;;;;;;;0.98;0.98;;;11.00;99.90;;;;;;5073139;28;20228;-88
2022/04/06 03:32:34;;;;;;;1.50;0.88;;;11.00;99.90;;;;;;5072758;28;20252;-88
2022/04/06 03:35:04;;;;;;;0.88;0.88;;;10.90;99.90;;;;;;5072946;28;20316;-87
2022/04/06 03:37:32;;;;;;;0.77;0.77;;;10.80;99.90;;;;;;5072782;28;20213;-87
2022/04/06 03:40:01;;;;;;;0.70;0.70;;;10.90;99.90;;;;;;5072902;28;20201;-87
2022/04/06 03:42:30;;;;;;;1.00;1.00;;;10.80;99.90;;;;;;5072486;28;20248;-87
2022/04/06 03:44:58;;;;;;;1.05;1.05;;;10.80;99.90;;;;;;5073143;28;20205;-87
2022/04/06 03:47:30;;;;;;;1.13;1.02;;;10.80;99.90;;;;;;5072870;28;20262;-86
2022/04/06 03:49:59;;;;;;;1.30;1.20;;;10.70;99.90;;;;;;5072767;28;20211;-87
2022/04/06 03:52:29;;;;;;;1.10;1.10;;;10.70;99.90;;;;;;5072186;28;20233;-86
2022/04/06 03:54:57;;;;;;;1.27;1.17;;;10.70;99.90;;;;;;5072161;28;20232;-88
2022/04/06 03:57:26;;;;;;;1.17;1.15;;;10.70;99.90;;;;;;5072493;28;20292;-87
2022/04/06 03:59:55;;;;;;;0.93;0.93;;;10.60;99.90;;;;;;5072631;28;20200;-86
2022/04/06 04:02:24;;;;;;;1.08;1.08;;;10.60;99.90;;;;;;5072137;28;20247;-87
2022/04/06 04:04:52;;;;;;;1.40;1.30;;;10.50;99.90;;;;;;5072731;28;20287;-87
2022/04/06 04:07:22;;;;;;;1.25;1.15;;;10.50;99.90;;;;;;5073541;28;20259;-87
2022/04/06 04:09:52;;;;;;;1.10;1.10;;;10.50;99.90;;;;;;5073066;28;20289;-87
2022/04/06 04:12:20;;;;;;;1.13;1.13;;;10.50;99.90;;;;;;5072221;28;20303;-86
2022/04/06 04:14:48;;;;;;;2.10;1.40;;;10.50;99.90;;;;;;5072491;28;20225;-87
2022/04/06 04:17:17;;;;;;;0.80;0.80;;;10.50;99.90;;;;;;5072027;28;20236;-87
2022/04/06 04:19:45;;;;;;;2.08;1.20;;;10.50;99.90;;;;;;5072738;28;20201;-87
2022/04/06 04:22:14;;;;;;;1.20;1.20;;;10.40;99.90;;;;;;5077454;28;20232;-86
2022/04/06 04:24:42;;;;;;;1.13;1.13;;;10.40;99.90;;;;;;5072797;28;20278;-87
2022/04/06 04:27:12;;;;;;;1.58;1.48;;;10.40;99.90;;;;;;5072850;28;20223;-87
2022/04/06 04:29:40;;;;;;;1.40;1.30;;;10.40;99.90;;;;;;5072379;28;20201;-86
2022/04/06 04:32:10;;;;;;;1.08;1.08;;;10.40;99.90;;;;;;5072238;28;20229;-86
2022/04/06 04:34:38;;;;;;;1.10;1.10;;;10.40;99.90;;;;;;5072914;28;20217;-87
2022/04/06 04:37:07;;;;;;;1.30;1.30;;;10.30;99.90;;;;;;5073100;28;20288;-86
2022/04/06 04:39:35;;;;;;;1.40;1.30;;;10.30;99.90;;;;;;5073386;28;20205;-86
2022/04/06 04:42:04;;;;;;;2.88;2.28;;;10.30;99.90;;;;;;5078392;28;20247;-86
2022/04/06 04:44:35;;;;;;;1.80;1.70;;;10.30;99.90;;;;;;5072712;28;20201;-86
2022/04/06 04:47:03;;;;;;;1.92;1.20;;;10.30;99.90;;;;;;5071898;28;20200;-86
2022/04/06 04:49:32;;;;;;;2.00;1.50;;;10.30;99.90;;;;;;5071948;28;20221;-86
2022/04/06 04:52:01;;;;;;;1.70;1.60;;;10.30;99.90;;;;;;5071920;28;20304;-86
2022/04/06 04:54:30;;;;;;;1.30;1.30;;;10.20;99.90;;;;;;5072125;28;20255;-86
2022/04/06 04:56:58;;;;;;;1.55;1.45;;;10.20;99.90;;;;;;5071941;28;20213;-87
2022/04/06 04:59:27;;;;;;;1.67;1.58;;;10.30;99.90;;;;;;5075507;28;20238;-86
2022/04/06 05:01:57;;;;;;;1.60;1.50;;;10.20;99.90;;;;;;5075610;28;20225;-86
2022/04/06 05:04:25;;;;;;;1.30;1.20;;;10.20;99.90;;;;;;5075371;28;20209;-87
2022/04/06 05:06:53;;;;;;;1.95;1.85;;;10.20;99.90;;;;;;5075962;28;20207;-87
2022/04/06 05:09:22;;;;;;;2.60;2.40;;;10.20;99.90;;;;;;5075264;28;20289;-87
2022/04/06 05:11:50;;;;;;;1.55;1.45;;;10.20;99.90;;;;;;5075155;28;20305;-86
2022/04/06 05:14:19;;;;;;;2.33;2.13;;;10.30;99.90;;;;;;5075521;28;20303;-87
2022/04/06 05:16:47;;;;;;;1.70;1.60;;;10.30;99.90;;;;;;5075306;28;20232;-86
2022/04/06 05:19:17;;;;;;;5.28;1.98;;;10.30;99.90;;;;;;5075617;28;20244;-86
2022/04/06 05:21:45;;;;;;;1.75;1.65;;;10.30;99.90;;;;;;5075239;28;20292;-86
2022/04/06 05:24:14;;;;;;;1.55;1.45;;;10.30;99.90;;;;;;5075091;28;20197;-86
2022/04/06 05:26:42;;;;;;;1.42;1.35;;;10.30;99.90;;;;;;5075562;28;20225;-86
2022/04/06 05:29:11;;;;;;;3.03;1.73;;;10.30;99.90;;;;;;5075451;28;20205;-86
2022/04/06 05:31:39;;;;;;;4.72;1.88;;;10.30;99.90;;;;;;5075482;28;20309;-86
2022/04/06 05:34:07;;;;;;;1.65;1.55;;;10.30;99.90;;;;;;5075149;28;20212;-86
2022/04/06 05:36:37;;;;;;;1.20;1.20;;;10.30;99.90;;;;;;5075394;28;20239;-85
2022/04/06 05:39:07;;;;;;;3.03;1.73;;;10.40;99.90;;;;;;5075440;28;20240;-86
2022/04/06 05:41:36;;;;;;;1.80;1.70;;;10.40;99.90;;;;;;5075836;28;20231;-85
2022/04/06 05:44:05;;;;;;;1.88;1.77;;;10.40;99.90;;;;;;5075308;28;20262;-86
2022/04/06 05:46:33;;;;;;;1.70;1.60;;;10.40;99.90;;;;;;5075529;28;20201;-85
2022/04/06 05:49:02;;;;;;;2.05;1.95;;;10.50;99.90;;;;;;5079240;28;20212;-87
2022/04/06 05:51:30;;;;;;;1.40;1.30;;;10.60;99.90;;;;;;5078006;28;20205;-86
2022/04/06 05:54:00;;;;;;;3.45;2.30;;;10.70;99.90;;;;;;5075231;28;20201;-87
2022/04/06 05:56:29;;;;;;;2.13;1.80;;;10.70;99.90;;;;;;5074806;28;20308;-86
2022/04/06 05:58:57;;;;;;;4.68;1.70;;;10.70;99.90;;;;;;5075087;28;20212;-86
2022/04/06 06:01:26;;;;;;;1.60;1.50;;;10.70;99.90;;;;;;5074459;28;20205;-87
2022/04/06 06:03:55;;;;;;;1.75;1.65;;;10.80;99.90;;;;;;5074350;28;20209;-86
2022/04/06 06:06:23;;;;;;;1.67;1.58;;;10.80;99.90;;;;;;5074345;28;20197;-88
2022/04/06 06:08:52;;;;;;;1.73;1.33;;;10.80;99.90;;;;;;5073996;28;20200;-86
2022/04/06 06:11:22;;;;;;;1.48;1.38;;;10.90;99.90;;;;;;5074331;28;20224;-88
2022/04/06 06:13:50;;;;;;;1.95;1.83;;;10.90;99.90;;;;;;5075043;28;20263;-87
2022/04/06 06:16:18;;;;;;;1.58;1.48;;;10.90;99.90;;;;;;5074041;28;20250;-87
2022/04/06 06:18:47;;;;;;;1.92;1.83;;;11.00;99.90;;;;;;5074164;28;20215;-86
2022/04/06 06:21:15;;;;;;;1.70;1.60;;;11.00;99.90;;;;;;5074358;28;20205;-86
2022/04/06 06:23:43;;;;;;;1.45;1.35;;;11.00;99.90;;;;;;5074062;28;20286;-86
2022/04/06 06:26:12;;;;;;;1.42;1.35;;;11.10;99.90;;;;;;5074057;28;20208;-86
2022/04/06 06:28:42;;;;;;;1.45;1.35;;;11.10;99.90;;;;;;5073580;28;20289;-86
2022/04/06 06:31:11;;;;;;;1.30;1.30;;;11.20;99.90;;;;;;5073898;28;20209;-87
2022/04/06 06:33:39;;;;;;;1.65;1.55;;;11.30;99.90;;;;;;5073892;28;20229;-87
2022/04/06 06:36:07;;;;;;;1.30;1.20;;;11.30;99.90;;;;;;5074148;28;20229;-88
2022/04/06 06:38:36;;;;;;;1.15;1.08;;;11.40;99.90;;;;;;5074136;28;20292;-87
2022/04/06 06:41:04;;;;;;;1.98;1.70;;;11.60;99.90;;;;;;5073632;28;20205;-87
2022/04/06 06:43:32;;;;;;;0.65;0.65;;;11.60;99.90;;;;;;5073745;28;20221;-86
2022/04/06 06:46:02;;;;;;;0.90;0.90;;;11.80;99.90;;;;;;5073755;28;20217;-86
2022/04/06 06:48:30;;;;;;;1.45;0.98;;;11.90;99.90;;;;;;5073801;28;20259;-86
2022/04/06 06:50:59;;;;;;;1.00;1.00;;;12.00;99.90;;;;;;5073594;28;20225;-86
2022/04/06 06:53:27;;;;;;;1.05;0.88;;;12.20;99.90;;;;;;5073889;28;20259;-86
2022/04/06 06:55:56;;;;;;;0.70;0.70;;;12.30;99.90;;;;;;5073270;28;20216;-87
2022/04/06 06:58:24;;;;;;;0.60;0.60;;;12.50;99.90;;;;;;5073739;28;20255;-85
2022/04/06 07:00:53;;;;;;;0.80;0.80;;;12.60;99.90;;;;;;5073268;28;20229;-86
2022/04/06 07:03:23;;;;;;;0.75;0.75;;;12.70;99.90;;;;;;5073423;28;20244;-85
2022/04/06 07:05:52;;;;;;;0.80;0.80;;;12.90;99.90;;;;;;5073444;28;20231;-85
2022/04/06 07:08:20;;;;;;;0.80;0.80;;;13.00;99.90;;;;;;5073199;28;20247;-86
2022/04/06 07:10:49;;;;;;;1.20;1.10;;;13.10;99.90;;;;;;5072893;28;20244;-86
2022/04/06 07:13:18;;;;;;;0.77;0.77;;;13.20;99.90;;;;;;5073501;28;20245;-86
2022/04/06 07:15:46;;;;;;;0.85;0.85;;;13.30;99.90;;;;;;5073568;28;20300;-87
2022/04/06 07:18:17;;;;;;;1.50;1.40;;;13.40;99.90;;;;;;5073210;28;20292;-86
2022/04/06 07:20:47;;;;;;;1.35;1.23;;;13.40;99.90;;;;;;5072462;28;20200;-86
2022/04/06 07:23:15;;;;;;;0.98;0.98;;;13.60;99.90;;;;;;5072645;28;20229;-86
2022/04/06 07:25:44;;;;;;;1.52;1.42;;;13.70;99.90;;;;;;5073065;28;20202;-87
2022/04/06 07:28:12;;;;;;;0.63;0.63;;;13.80;99.90;;;;;;5072994;28;20205;-86
2022/04/06 07:30:40;;;;;;;0.80;0.80;;;13.90;99.90;;;;;;5073182;28;20197;-85
2022/04/06 07:33:12;;;;;;;1.85;1.05;;;14.00;99.90;;;;;;5072763;28;20228;-86
2022/04/06 07:35:41;;;;;;;0.63;0.63;;;14.10;99.90;;;;;;5072898;28;20221;-86
2022/04/06 07:38:12;;;;;;;2.55;1.58;;;14.20;99.90;;;;;;5072573;28;20235;-86
2022/04/06 07:40:41;;;;;;;0.68;0.68;;;14.30;99.90;;;;;;5072311;28;20223;-85
2022/04/06 07:43:11;;;;;;;0.93;0.85;;;14.30;99.90;;;;;;5072981;28;20225;-86
2022/04/06 07:45:40;;;;;;;0.88;0.80;;;14.30;99.90;;;;;;5072501;28;20225;-86
2022/04/06 07:48:09;;;;;;;0.82;0.82;;;14.50;99.90;;;;;;5072442;28;20211;-86
2022/04/06 07:50:38;;;;;;;0.50;0.50;;;14.70;99.90;;;;;;5072121;28;20228;-85
2022/04/06 07:53:07;;;;;;;0.60;0.60;;;14.80;99.90;;;;;;5072503;28;20275;-86
2022/04/06 07:55:36;;;;;;;0.45;0.45;;;14.90;99.90;;;;;;5072577;28;20309;-87
2022/04/06 07:58:05;;;;;;;0.50;0.50;;;15.00;99.90;;;;;;5072934;28;20220;-87
2022/04/06 08:00:34;;;;;;;0.80;0.80;;;15.10;99.90;;;;;;5072074;28;20205;-86
2022/04/06 08:03:02;;;;;;;2.20;0.93;;;15.30;99.90;;;;;;5072588;28;20248;-86
2022/04/06 08:05:31;;;;;;;0.80;0.80;;;15.70;99.90;;;;;;5072232;28;20207;-86
2022/04/06 08:07:59;;;;;;;0.43;0.43;;;16.10;99.90;;;;;;5072429;28;20217;-86
2022/04/06 08:10:30;;;;;;;0.65;0.65;;;16.30;99.90;;;;;;5072391;28;20216;-86
2022/04/06 08:13:02;;;;;;;0.60;0.60;;;16.50;99.90;;;;;;5072230;28;20296;-86
2022/04/06 08:15:31;;;;;;;0.63;0.63;;;16.70;99.90;;;;;;5072064;28;20208;-85
2022/04/06 08:17:59;;;;;;;0.57;0.57;;;17.00;99.90;;;;;;5072437;28;20266;-85
2022/04/06 08:20:27;;;;;;;0.60;0.60;;;17.30;99.90;;;;;;5072067;28;20201;-86
2022/04/06 08:22:59;;;;;;;0.55;0.55;;;17.60;99.90;;;;;;5073258;28;20298;-86
2022/04/06 08:25:32;;;;;;;0.55;0.45;;;17.70;99.90;;;;;;5073361;28;20205;-86
2022/04/06 08:28:08;;;;;;;1.42;0.93;;;18.00;99.90;;;;;;5073673;28;20209;-86
2022/04/06 08:30:39;;;;;;;1.10;1.10;;;18.30;99.90;;;;;;5079327;28;20197;-87
2022/04/06 08:33:10;;;;;;;0.82;0.82;;;18.50;99.90;;;;;;5075543;28;20267;-87
2022/04/06 08:35:38;;;;;;;0.40;0.40;;;18.90;99.90;;;;;;5076777;28;20213;-88
2022/04/06 08:38:07;;;;;;;0.50;0.50;;;19.60;99.90;;;;;;5076743;28;20229;-86
2022/04/06 08:40:38;;;;;;;0.40;0.40;;;20.00;99.70;;;;;;5076076;28;20208;-86
2022/04/06 08:43:17;;;;;;;0.40;0.40;;;20.20;98.60;;;;;;5076732;28;20221;-86
2022/04/06 08:45:46;;;;;;;0.40;0.40;;;19.90;97.70;;;;;;5077076;28;20234;-86
2022/04/06 08:48:14;;;;;;;0.90;0.70;;;19.60;97.30;;;;;;5076979;28;20295;-86
2022/04/06 08:50:44;;;;;;;0.40;0.40;;;19.80;97.50;;;;;;5080192;28;20227;-86
2022/04/06 08:53:13;;;;;;;0.73;0.63;;;19.70;97.30;;;;;;5076820;28;20217;-85
2022/04/06 08:55:41;;;;;;;0.40;0.40;;;19.50;97.50;;;;;;5076374;28;20212;-86
2022/04/06 08:58:11;;;;;;;1.70;0.73;;;19.10;97.10;;;;;;5075782;28;20232;-86
2022/04/06 09:00:39;;;;;;;1.02;1.00;;;19.00;97.90;;;;;;5076097;28;20243;-86
2022/04/06 09:03:08;;;;;;;0.73;0.73;;;19.30;98.80;;;;;;5075749;28;20304;-86
2022/04/06 09:05:37;;;;;;;0.98;0.73;;;19.40;97.60;;;;;;5075565;28;20197;-86
2022/04/06 09:08:06;;;;;;;0.88;0.88;;;19.00;97.80;;;;;;5075729;28;20201;-86
2022/04/06 09:10:42;;;;;;;0.80;0.80;;;19.00;98.80;;;;;;5075497;28;20200;-86
2022/04/06 09:13:15;;;;;;;0.95;0.95;;;18.80;98.50;;;;;;5075994;28;20225;-86
2022/04/06 09:15:45;;;;;;;1.13;0.98;;;19.00;98.20;;;;;;5075192;28;20209;-86
2022/04/06 09:18:14;;;;;;;1.50;1.08;;;18.80;98.20;;;;;;5075070;28;20278;-86
2022/04/06 09:20:48;;;;;;;0.88;0.88;;;18.50;99.10;;;;;;5074980;28;20209;-86
2022/04/06 09:23:16;;;;;;;0.52;0.52;;;18.40;98.90;;;;;;5075177;28;20233;-85
2022/04/06 09:25:45;;;;;;;0.70;0.70;;;18.20;98.90;;;;;;5075199;28;20208;-85
2022/04/06 09:28:15;;;;;;;0.80;0.80;;;18.10;98.80;;;;;;5075434;28;20264;-86
2022/04/06 09:30:44;;;;;;;1.15;1.00;;;18.20;98.90;;;;;;5074978;28;20244;-86
2022/04/06 09:33:14;;;;;;;0.70;0.70;;;18.80;98.90;;;;;;5075261;28;20253;-86
2022/04/06 09:35:44;;;;;;;0.82;0.82;;;19.50;97.80;;;;;;5075254;28;20225;-87
2022/04/06 09:38:14;;;;;;;0.60;0.60;;;19.90;95.20;;;;;;5074913;28;20308;-87
2022/04/06 09:40:45;;;;;;;0.65;0.65;;;20.00;95.20;;;;;;5075305;28;20267;-86
2022/04/06 09:43:28;;;;;;;0.47;0.47;;;20.20;95.30;;;;;;5074598;28;20248;-87
2022/04/06 09:49:05;;;;;;;0.52;0.52;;;22.10;92.60;;;;;;5075036;28;20200;-86
2022/04/06 09:51:34;;;;;;;0.65;0.65;;;22.30;90.80;;;;;;5074732;28;20208;-87
2022/04/06 09:54:04;;;;;;;0.40;0.40;;;22.80;90.20;;;;;;5075001;28;20201;-86
2022/04/06 09:56:33;;;;;;;0.63;0.63;;;23.90;90.70;;;;;;5074433;28;20292;-86
2022/04/06 09:59:10;;;;;;;0.55;0.55;;;25.30;87.20;;;;;;5074944;28;20209;-87
2022/04/06 10:01:41;;;;;;;1.00;1.00;;;25.80;78.30;;;;;;5074621;28;20197;-86
2022/04/06 10:04:12;;;;;;;0.70;0.70;;;25.60;75.50;;;;;;5074453;28;20213;-87
2022/04/06 10:06:42;;;;;;;0.52;0.52;;;25.70;75.80;;;;;;5074555;28;20278;-87
2022/04/06 10:09:14;;;;;;;0.57;0.57;;;25.50;74.40;;;;;;5074600;28;20209;-87
2022/04/06 10:11:43;;;;;;;0.50;0.50;;;25.60;73.30;;;;;;5074559;28;20232;-87
2022/04/06 10:14:13;;;;;;;0.50;0.50;;;25.70;70.10;;;;;;5074721;28;20213;-87
2022/04/06 10:16:44;;;;;;;0.47;0.47;;;25.10;72.00;;;;;;5075494;28;20217;-88
2022/04/06 10:19:15;;;;;;;0.32;0.32;;;24.80;69.90;;;;;;5076024;28;20211;-87
2022/04/06 10:21:53;;;;;;;0.80;0.80;;;24.30;71.60;;;;;;5075105;28;20247;-87
2022/04/06 10:24:34;;;;;;;0.40;0.40;;;24.30;68.20;;;;;;5074502;28;20231;-86
2022/04/06 10:27:12;;;;;;;0.45;0.45;;;24.50;70.00;;;;;;5074303;28;20220;-86
2022/04/06 10:30:13;;;;;;;0.85;0.70;;;24.50;69.40;;;;;;5074385;28;20238;-86
2022/04/06 10:32:44;;;;;;;0.50;0.50;;;;;;;;;;5074128;28;20217;-87
2022/04/06 10:35:23;;;;;;;0.75;0.70;;;23.80;66.90;;;;;;5073919;28;20232;-87
2022/04/06 10:38:20;;;;;;;0.73;0.73;;;23.30;69.30;;;;;;5073857;28;20286;-86
2022/04/06 10:40:59;;;;;;;0.60;0.60;;;22.90;70.20;;;;;;5073649;28;20205;-86
2022/04/06 10:43:51;;;;;;;0.65;0.65;;;22.50;71.70;;;;;;5073964;28;20233;-86
2022/04/06 10:46:34;;;;;;;0.60;0.60;;;22.20;71.30;;;;;;5073910;28;20269;-87
2022/04/06 10:49:15;;;;;;;0.60;0.60;;;22.10;72.80;;;;;;5073611;28;20246;-86
2022/04/06 10:51:45;;;;;;;5.30;0.98;;;22.20;72.70;;;;;;5073273;28;20228;-87
2022/04/06 10:54:43;;;;;;;0.70;0.70;;;22.60;71.60;;;;;;5073587;28;20255;-86
2022/04/06 10:57:12;;;;;;;0.70;0.70;;;22.60;70.00;;;;;;5068778;28;20262;-86
2022/04/06 10:59:40;;;;;;;0.50;0.50;;;22.40;71.50;;;;;;5073468;28;20202;-86
2022/04/06 11:02:25;;;;;;;0.38;0.32;;;22.10;71.80;;;;;;5073330;28;20271;-87
2022/04/06 11:04:56;;;;;;;0.47;0.47;;;21.90;70.20;;;;;;5073114;28;20205;-86
2022/04/06 11:10:29;;;;;;;0.73;0.60;;;21.30;72.30;;;;;;5073615;28;20251;-87
2022/04/06 11:13:04;;;;;;;0.50;0.50;;;20.90;71.60;;;;;;5073543;28;20236;-87
2022/04/06 11:15:37;;;;;;;0.40;0.40;;;20.80;74.10;;;;;;5073187;28;20231;-86
2022/04/06 11:18:46;;;;;;;0.15;0.15;;;20.70;73.60;;;;;;5072899;28;20483;-86
2022/04/06 11:21:16;;;;;;;0.40;0.40;;;20.90;72.50;;;;;;5031375;28;20272;-87
2022/04/06 11:23:45;;;;;;;6.18;0.82;;;21.20;74.10;;;;;;5031415;28;20226;-87
2022/04/06 11:26:13;;;;;;;0.60;0.60;;;21.70;72.50;;;;;;5052437;28;20294;-86
2022/04/06 11:28:41;;;;;;;0.40;0.40;;;22.00;72.60;;;;;;5072796;28;20269;-87
2022/04/06 11:31:11;;;;;;;0.45;0.45;;;22.30;71.60;;;;;;5072758;28;20212;-86
2022/04/06 11:33:40;;;;;;;0.80;0.80;;;22.80;71.70;;;;;;5072744;28;20225;-87
2022/04/06 11:36:17;;;;;;;1.00;1.00;;;23.00;69.00;;;;;;5073186;28;20201;-86
2022/04/06 11:38:50;;;;;;;0.50;0.50;;;22.80;71.60;;;;;;5072677;28;20224;-87
2022/04/06 11:41:19;;;;;;;0.50;0.50;;;22.30;69.70;;;;;;5072375;28;20274;-87
2022/04/06 11:43:50;;;;;;;0.75;0.75;;;22.10;69.30;;;;;;5073091;28;20209;-87
2022/04/06 11:46:19;;;;;;;0.45;0.45;;;22.20;69.00;;;;;;5072576;28;20212;-86
2022/04/06 11:48:48;;;;;;;0.60;0.60;;;22.10;68.70;;;;;;5073078;28;20205;-87
2022/04/06 11:51:18;;;;;;;1.85;0.70;;;21.80;70.30;;;;;;5072519;28;20205;-87
2022/04/06 11:53:46;;;;;;;0.60;0.60;;;21.50;71.10;;;;;;5072121;28;20233;-87
2022/04/06 11:56:23;;;;;;;0.80;0.63;;;21.80;71.20;;;;;;5072419;28;20337;-87
2022/04/06 11:58:57;;;;;;;0.73;0.73;;;22.50;71.30;;;;;;5072274;28;20221;-87
2022/04/06 12:01:28;;;;;;;0.88;0.88;;;23.10;69.40;;;;;;5072519;28;20287;-87
2022/04/06 12:03:58;;;;;;;0.77;0.65;;;23.60;66.60;;;;;;5072432;28;20228;-87
2022/04/06 12:06:53;;;;;;;0.60;0.60;;;24.00;67.50;;;;;;5072128;28;20300;-88
2022/04/06 12:09:22;;;;;;;0.70;0.70;;;23.90;66.00;;;;;;5071457;28;20224;-82
2022/04/06 12:11:51;;;;;;;0.70;0.70;;;23.20;65.80;;;;;;5070164;28;20229;-83
2022/04/06 12:14:21;;;;;;;0.73;0.73;;;22.80;67.10;;;;;;5058338;28;20206;-82
2022/04/06 12:16:51;;;;;;;0.65;0.65;;;22.80;67.50;;;;;;5071113;28;20239;-83
2022/04/06 12:19:20;;;;;;;0.73;0.73;;;23.10;68.20;;;;;;5071361;28;20231;-83
2022/04/06 12:21:53;;;;;;;0.75;0.75;;;23.50;67.00;;;;;;5070989;28;20225;-82
2022/04/06 12:24:37;;;;;;;1.05;1.05;;;23.50;65.60;;;;;;5071400;28;20232;-84
2022/04/06 12:27:06;;;;;;;2.30;1.30;;;23.40;65.90;;;;;;5072310;28;20189;-84
2022/04/06 12:29:36;;;;;;;1.30;1.20;;;23.10;67.10;;;;;;5071636;28;20201;-83
2022/04/06 12:32:05;;;;;;;2.38;1.10;;;22.80;67.00;;;;;;5071098;28;20272;-83
2022/04/06 12:34:44;;;;;;;0.90;0.90;;;22.60;67.80;;;;;;5071038;28;20219;-83
2022/04/06 12:37:32;;;;;;;1.00;1.00;;;22.70;66.70;;;;;;5069638;28;20213;-83
2022/04/06 12:40:02;;;;;;;0.90;0.90;;;22.80;67.60;;;;;;5071258;28;20221;-83
2022/04/06 12:42:37;;;;;;;2.40;1.00;;;22.90;67.00;;;;;;5071553;28;20209;-83
2022/04/06 12:45:06;;;;;;;1.20;1.10;;;22.60;67.10;;;;;;5072460;28;20205;-83
2022/04/06 12:47:34;;;;;;;1.10;1.10;;;22.60;66.50;;;;;;5071134;28;20201;-83
2022/04/06 12:50:15;;;;;;;1.20;1.15;;;22.70;68.50;;;;;;5070775;28;20209;-83
2022/04/06 12:52:47;;;;;;;1.50;1.40;;;23.00;66.70;;;;;;5069684;28;20255;-83
2022/04/06 12:55:16;;;;;;;1.58;1.48;;;23.20;66.40;;;;;;5072122;28;20201;-83
2022/04/06 12:57:44;;;;;;;1.60;1.50;;;23.30;67.70;;;;;;5071246;28;20283;-83
2022/04/06 13:00:19;;;;;;;1.52;1.42;;;23.60;66.60;;;;;;5052027;28;20225;-88
2022/04/06 13:02:52;;;;;;;1.33;1.23;;;23.90;66.00;;;;;;5051858;28;20251;-84
2022/04/06 13:05:21;;;;;;;2.35;1.25;;;24.00;63.50;;;;;;5070490;28;20205;-84
2022/04/06 13:07:54;;;;;;;1.65;1.55;;;24.00;65.00;;;;;;5072381;28;20233;-84
2022/04/06 13:10:29;;;;;;;1.60;1.50;;;23.80;65.10;;;;;;5065796;28;20201;-85
2022/04/06 13:13:00;;;;;;;2.28;1.80;;;23.90;65.00;;;;;;5070535;28;20225;-84